Time;durP1;ratioP1;P1;durP2;ratioP2;P2;SDS_P1;SDS_P2;PMS_P1;PMS_P2;Temp;Humidity;BMP_temperature;BMP_pressure;BME280_temperature;BME280_humidity;BME280_pressure;Samples;Min_cycle;Max_cycle;Signal;HPM_P1;HPM_P2
2022/08/19 00:00:27;;;;;;;4.60;4.50;;;25.50;68.40;;;;;;5047812;28;44014;-73
2022/08/19 00:02:56;;;;;;;4.90;4.80;;;25.40;68.30;;;;;;5047541;28;44033;-74
2022/08/19 00:05:24;;;;;;;4.93;4.83;;;25.40;68.90;;;;;;5046775;28;44050;-74
2022/08/19 00:07:52;;;;;;;4.45;4.35;;;25.40;68.90;;;;;;5047042;28;44031;-73
2022/08/19 00:10:20;;;;;;;4.50;4.40;;;25.40;68.90;;;;;;5047279;28;43972;-73
2022/08/19 00:12:48;;;;;;;4.97;4.87;;;25.30;68.60;;;;;;5047342;28;43385;-73
2022/08/19 00:15:17;;;;;;;5.13;5.03;;;25.30;69.10;;;;;;5047539;28;44035;-73
2022/08/19 00:17:45;;;;;;;4.87;4.67;;;25.30;69.20;;;;;;5047060;28;44869;-73
2022/08/19 00:20:17;;;;;;;4.77;4.67;;;25.40;68.90;;;;;;5046212;28;45570;-74
2022/08/19 00:22:45;;;;;;;4.73;4.63;;;25.50;68.50;;;;;;5047109;28;43944;-73
2022/08/19 00:25:13;;;;;;;5.30;5.10;;;25.50;68.10;;;;;;5048253;28;43826;-73
2022/08/19 00:27:42;;;;;;;4.78;4.68;;;25.60;68.10;;;;;;5045380;28;45749;-75
2022/08/19 00:30:11;;;;;;;4.80;4.70;;;25.50;68.00;;;;;;5047251;28;43942;-73
2022/08/19 00:32:39;;;;;;;4.90;4.80;;;25.50;68.40;;;;;;5046894;28;43817;-74
2022/08/19 00:35:09;;;;;;;4.70;4.60;;;25.50;68.60;;;;;;5046089;28;43483;-73
2022/08/19 00:37:42;;;;;;;4.72;4.63;;;25.50;68.60;;;;;;5046630;28;43966;-73
2022/08/19 00:40:11;;;;;;;4.63;4.53;;;25.40;68.50;;;;;;5047063;28;44016;-73
2022/08/19 00:42:39;;;;;;;4.90;4.80;;;25.30;68.80;;;;;;5046094;28;43967;-73
2022/08/19 00:45:11;;;;;;;5.28;5.18;;;25.30;69.00;;;;;;5047303;28;43952;-73
2022/08/19 00:47:39;;;;;;;5.45;5.22;;;25.30;68.90;;;;;;5046279;28;44028;-74
2022/08/19 00:50:08;;;;;;;5.22;5.03;;;25.40;68.50;;;;;;5047400;28;44009;-73
2022/08/19 00:52:39;;;;;;;4.80;4.70;;;25.50;68.20;;;;;;5044842;28;43890;-73
2022/08/19 00:55:09;;;;;;;5.07;4.97;;;25.50;68.10;;;;;;5047452;28;43357;-73
2022/08/19 00:57:40;;;;;;;4.68;4.57;;;25.50;68.20;;;;;;5046258;28;43861;-73
2022/08/19 01:00:12;;;;;;;5.13;4.93;;;25.50;68.30;;;;;;5047061;28;43862;-74
2022/08/19 01:02:41;;;;;;;5.03;4.75;;;25.40;68.70;;;;;;5046415;28;43981;-74
2022/08/19 01:05:10;;;;;;;5.10;5.00;;;25.40;68.70;;;;;;5047489;28;43845;-74
2022/08/19 01:07:40;;;;;;;4.95;4.85;;;25.40;68.70;;;;;;5046141;28;43934;-74
2022/08/19 01:10:09;;;;;;;4.77;4.67;;;25.30;68.70;;;;;;5046417;28;43944;-74
2022/08/19 01:12:38;;;;;;;5.20;5.10;;;25.30;69.20;;;;;;5046231;28;43939;-75
2022/08/19 01:15:07;;;;;;;5.37;5.27;;;25.30;69.20;;;;;;5047223;28;44026;-74
2022/08/19 01:17:35;;;;;;;5.23;5.13;;;25.30;69.00;;;;;;5050446;28;44013;-74
2022/08/19 01:20:04;;;;;;;5.17;5.07;;;25.30;68.70;;;;;;5066852;28;43946;-74
2022/08/19 01:22:35;;;;;;;5.30;5.20;;;25.20;69.40;;;;;;5065967;28;43880;-73
2022/08/19 01:25:02;;;;;;;4.90;4.80;;;25.30;69.30;;;;;;5067249;28;43799;-73
2022/08/19 01:27:42;;;;;;;5.03;4.93;;;25.40;68.90;;;;;;5066133;28;44020;-73
2022/08/19 01:30:12;;;;;;;5.53;5.43;;;25.50;68.50;;;;;;5066397;28;43852;-74
2022/08/19 01:32:40;;;;;;;5.00;4.90;;;25.50;68.20;;;;;;5066632;28;43942;-74
2022/08/19 01:35:11;;;;;;;4.75;4.57;;;25.50;68.20;;;;;;5065389;28;44209;-74
2022/08/19 01:37:49;;;;;;;5.20;5.10;;;25.50;68.20;;;;;;5066205;28;43942;-73
2022/08/19 01:40:20;;;;;;;5.15;5.05;;;25.40;68.60;;;;;;5066702;28;43892;-74
2022/08/19 01:42:48;;;;;;;5.13;5.03;;;25.40;68.70;;;;;;5066282;28;43849;-74
2022/08/19 01:45:16;;;;;;;5.30;5.20;;;25.40;68.70;;;;;;5066995;28;44061;-73
2022/08/19 01:47:44;;;;;;;5.20;5.10;;;25.30;68.50;;;;;;5066182;28;44017;-74
2022/08/19 01:50:28;;;;;;;5.27;5.07;;;25.30;69.10;;;;;;5066302;28;43945;-73
2022/08/19 01:52:59;;;;;;;5.07;4.97;;;25.30;69.00;;;;;;5066178;28;43363;-75
2022/08/19 01:55:35;;;;;;;5.15;5.05;;;25.40;68.70;;;;;;5066285;28;44082;-73
2022/08/19 01:58:09;;;;;;;5.20;5.10;;;25.50;68.40;;;;;;5066044;28;43963;-75
2022/08/19 02:00:37;;;;;;;5.30;5.20;;;25.50;68.10;;;;;;5065507;28;44214;-73
2022/08/19 02:03:06;;;;;;;4.93;4.83;;;25.50;68.10;;;;;;5066500;28;43965;-74
2022/08/19 02:05:34;;;;;;;4.95;4.85;;;25.50;68.10;;;;;;5064544;28;43980;-73
2022/08/19 02:08:04;;;;;;;5.43;5.32;;;25.40;68.60;;;;;;5066415;28;43933;-74
2022/08/19 02:10:31;;;;;;;5.20;5.10;;;25.40;68.70;;;;;;5065506;28;43959;-73
2022/08/19 02:12:59;;;;;;;5.30;5.20;;;25.40;68.60;;;;;;5065919;28;44034;-74
2022/08/19 02:15:28;;;;;;;5.77;5.60;;;25.30;68.30;;;;;;5066183;28;44110;-74
2022/08/19 02:17:55;;;;;;;5.57;5.38;;;25.30;69.10;;;;;;5064462;28;45750;-74
2022/08/19 02:20:23;;;;;;;5.37;5.27;;;25.30;69.10;;;;;;5066280;28;43973;-74
2022/08/19 02:22:52;;;;;;;5.23;5.13;;;25.30;69.00;;;;;;5065188;28;43908;-72
2022/08/19 02:25:22;;;;;;;5.05;4.95;;;25.20;68.70;;;;;;5066545;28;43951;-74
2022/08/19 02:27:50;;;;;;;5.50;5.30;;;25.20;69.20;;;;;;5065154;28;43901;-73
2022/08/19 02:30:18;;;;;;;5.73;5.63;;;25.20;69.30;;;;;;5065730;28;43991;-74
2022/08/19 02:32:46;;;;;;;4.78;4.68;;;25.30;69.00;;;;;;5064103;28;44022;-73
2022/08/19 02:35:14;;;;;;;5.33;5.23;;;25.40;68.60;;;;;;5066478;28;43853;-73
2022/08/19 02:40:29;;;;;;;5.32;5.18;;;25.50;68.20;;;;;;5066686;28;44820;-73
2022/08/19 02:42:57;;;;;;;5.30;5.20;;;25.50;68.20;;;;;;5069334;28;43916;-74
2022/08/19 02:45:25;;;;;;;5.50;5.40;;;25.40;68.40;;;;;;5069958;28;43743;-73
2022/08/19 02:47:53;;;;;;;5.65;5.55;;;25.30;68.60;;;;;;5069035;28;43956;-74
2022/08/19 02:50:21;;;;;;;5.53;5.43;;;25.30;68.70;;;;;;5069056;28;43958;-74
2022/08/19 02:52:49;;;;;;;5.50;5.40;;;25.30;68.40;;;;;;5067359;28;43890;-73
2022/08/19 02:55:18;;;;;;;5.50;5.40;;;25.30;68.90;;;;;;5068106;28;43956;-73
2022/08/19 02:57:47;;;;;;;5.13;5.03;;;25.30;69.30;;;;;;5068506;28;44077;-73
2022/08/19 03:00:16;;;;;;;5.13;5.03;;;25.20;69.10;;;;;;5069499;28;43861;-74
2022/08/19 03:02:44;;;;;;;5.20;5.10;;;25.20;68.80;;;;;;5068538;28;43916;-74
2022/08/19 03:05:12;;;;;;;5.57;5.47;;;25.20;69.10;;;;;;5069369;28;43927;-73
2022/08/19 03:07:40;;;;;;;5.30;5.20;;;25.10;69.40;;;;;;5066671;28;45774;-74
2022/08/19 03:10:09;;;;;;;5.43;5.33;;;25.20;69.20;;;;;;5068569;28;44007;-74
2022/08/19 03:12:37;;;;;;;5.50;5.30;;;25.30;68.70;;;;;;5068301;28;43992;-73
2022/08/19 03:15:07;;;;;;;5.60;5.50;;;25.40;68.30;;;;;;5069185;28;43924;-73
2022/08/19 03:17:35;;;;;;;5.30;5.20;;;25.50;68.20;;;;;;5067822;28;44045;-74
2022/08/19 03:20:04;;;;;;;5.20;5.10;;;25.50;68.20;;;;;;5068383;28;44132;-74
2022/08/19 03:22:32;;;;;;;5.20;5.10;;;25.50;68.20;;;;;;5068517;28;43967;-73
2022/08/19 03:25:00;;;;;;;5.20;5.05;;;25.40;68.70;;;;;;5068833;28;43908;-74
2022/08/19 03:27:29;;;;;;;5.30;5.20;;;25.40;68.70;;;;;;5068434;28;44077;-73
2022/08/19 03:30:02;;;;;;;5.87;5.67;;;25.40;68.70;;;;;;5068295;28;43976;-73
2022/08/19 03:32:31;;;;;;;5.00;4.90;;;25.30;68.30;;;;;;5068317;28;43907;-73
2022/08/19 03:35:00;;;;;;;6.20;5.80;;;25.20;69.10;;;;;;5067363;28;43503;-73
2022/08/19 03:37:28;;;;;;;5.77;5.40;;;25.20;69.20;;;;;;5068175;28;44065;-74
2022/08/19 03:39:56;;;;;;;6.00;5.70;;;25.30;69.10;;;;;;5066681;28;44963;-74
2022/08/19 03:42:24;;;;;;;10.00;6.50;;;25.20;68.70;;;;;;5068086;28;44062;-75
2022/08/19 03:45:12;;;;;;;6.70;6.20;;;25.20;69.30;;;;;;5068542;28;44069;-73
2022/08/19 03:47:42;;;;;;;6.90;6.27;;;25.20;70.10;;;;;;5067328;28;45042;-73
2022/08/19 03:50:10;;;;;;;6.85;6.20;;;25.30;69.10;;;;;;5065776;28;45071;-74
2022/08/19 03:52:39;;;;;;;7.00;6.38;;;25.30;68.60;;;;;;5067126;28;43345;-73
2022/08/19 03:55:14;;;;;;;8.40;7.13;;;25.50;68.70;;;;;;5068493;28;43839;-74
2022/08/19 03:57:42;;;;;;;7.60;6.90;;;25.50;68.30;;;;;;5067600;28;45001;-73
2022/08/19 04:00:11;;;;;;;7.15;6.45;;;25.50;68.20;;;;;;5068016;28;43402;-74
2022/08/19 04:02:43;;;;;;;9.00;7.33;;;25.40;68.40;;;;;;5067454;28;43747;-73
2022/08/19 04:05:28;;;;;;;8.10;7.03;;;25.30;68.70;;;;;;5066645;28;44007;-74
2022/08/19 04:07:58;;;;;;;9.83;8.00;;;25.30;68.70;;;;;;5067443;28;44248;-75
2022/08/19 04:10:26;;;;;;;9.00;7.60;;;25.30;68.50;;;;;;5066531;28;43966;-73
2022/08/19 04:12:54;;;;;;;11.03;7.40;;;25.20;68.60;;;;;;5067759;28;43391;-74
2022/08/19 04:15:22;;;;;;;8.43;7.53;;;25.20;69.20;;;;;;5068001;28;43951;-74
2022/08/19 04:17:51;;;;;;;9.50;7.43;;;25.20;69.10;;;;;;5067018;28;43940;-74
2022/08/19 04:20:19;;;;;;;9.53;7.30;;;25.20;69.00;;;;;;5067574;28;44081;-73
2022/08/19 04:22:47;;;;;;;7.73;6.73;;;25.20;68.70;;;;;;5067652;28;43975;-73
2022/08/19 04:25:15;;;;;;;10.83;7.57;;;25.10;69.40;;;;;;5068217;28;43992;-74
2022/08/19 04:27:46;;;;;;;8.67;7.87;;;25.20;69.40;;;;;;5067122;28;43897;-74
2022/08/19 04:30:14;;;;;;;8.80;7.40;;;25.30;69.00;;;;;;5067810;28;43970;-73
2022/08/19 04:32:43;;;;;;;9.13;8.13;;;25.40;68.60;;;;;;5066873;28;43957;-74
2022/08/19 04:35:12;;;;;;;8.68;7.70;;;25.50;68.20;;;;;;5067694;28;44066;-74
2022/08/19 04:37:46;;;;;;;8.60;7.43;;;25.50;68.10;;;;;;5066564;28;44185;-72
2022/08/19 04:43:00;;;;;;;9.53;7.90;;;25.40;68.30;;;;;;5067703;28;44000;-73
2022/08/19 04:45:28;;;;;;;10.80;7.60;;;25.40;68.70;;;;;;5068027;28;43976;-73
2022/08/19 04:48:10;;;;;;;8.57;7.67;;;25.30;68.60;;;;;;5067789;28;44247;-73
2022/08/19 04:50:57;;;;;;;8.30;7.43;;;25.30;68.30;;;;;;5067559;28;43746;-74
2022/08/19 04:53:28;;;;;;;8.48;7.47;;;25.20;69.00;;;;;;5066101;28;44068;-74
2022/08/19 04:55:56;;;;;;;8.63;7.35;;;25.20;69.10;;;;;;5068250;28;43911;-74
2022/08/19 04:58:25;;;;;;;7.68;7.03;;;25.20;69.00;;;;;;5067456;28;44049;-74
2022/08/19 05:00:53;;;;;;;8.50;7.63;;;25.20;68.60;;;;;;5067215;28;43487;-75
2022/08/19 05:03:21;;;;;;;9.40;8.30;;;25.10;69.30;;;;;;5067357;28;43831;-72
2022/08/19 05:05:49;;;;;;;9.57;7.37;;;25.20;69.40;;;;;;5067356;28;43959;-73
2022/08/19 05:08:21;;;;;;;7.97;7.27;;;25.20;69.10;;;;;;5067186;28;44024;-75
2022/08/19 05:10:58;;;;;;;7.95;7.30;;;25.30;68.50;;;;;;5067239;28;43984;-73
2022/08/19 05:13:26;;;;;;;8.18;7.47;;;25.40;68.30;;;;;;5067551;28;43383;-74
2022/08/19 05:15:55;;;;;;;8.00;7.20;;;25.40;68.20;;;;;;5067531;28;44003;-74
2022/08/19 05:23:55;;;;;;;7.90;7.22;;;25.30;68.10;;;;;;5067223;28;43818;-74
2022/08/19 05:26:25;;;;;;;7.38;6.68;;;25.20;68.30;;;;;;5065683;28;44003;-74
2022/08/19 05:28:53;;;;;;;6.97;6.45;;;25.10;68.40;;;;;;5066839;28;43977;-74
2022/08/19 05:31:21;;;;;;;7.63;6.97;;;25.10;68.50;;;;;;5066859;28;43905;-73
2022/08/19 05:33:50;;;;;;;7.73;7.03;;;25.10;68.70;;;;;;5065175;28;43913;-73
2022/08/19 05:36:20;;;;;;;8.23;7.53;;;25.00;69.30;;;;;;5067354;28;43396;-74
2022/08/19 05:38:49;;;;;;;7.17;6.67;;;25.00;69.80;;;;;;5066977;28;45088;-74
2022/08/19 05:41:19;;;;;;;7.80;7.10;;;25.10;69.30;;;;;;5066685;28;43827;-73
2022/08/19 05:43:49;;;;;;;7.13;6.63;;;25.30;68.60;;;;;;5066714;28;43369;-73
2022/08/19 05:46:18;;;;;;;6.72;6.22;;;25.50;67.80;;;;;;5067273;28;43976;-74
2022/08/19 05:48:56;;;;;;;7.05;6.45;;;25.80;67.00;;;;;;5065013;28;45970;-74
2022/08/19 05:51:24;;;;;;;6.72;6.22;;;26.10;66.10;;;;;;5066832;28;43480;-73
2022/08/19 05:53:56;;;;;;;6.07;5.68;;;26.30;65.40;;;;;;5066537;28;44030;-74
2022/08/19 05:56:30;;;;;;;6.70;6.20;;;26.50;64.60;;;;;;5065130;28;43977;-75
2022/08/19 05:58:58;;;;;;;6.88;6.38;;;26.60;64.10;;;;;;5066183;28;43940;-74
2022/08/19 06:01:26;;;;;;;6.50;6.10;;;26.70;63.60;;;;;;5064933;28;44807;-73
2022/08/19 06:03:54;;;;;;;6.72;6.25;;;26.90;63.30;;;;;;5066443;28;43359;-74
2022/08/19 06:06:24;;;;;;;6.25;5.90;;;26.90;63.00;;;;;;5066652;28;43906;-74
2022/08/19 06:08:52;;;;;;;6.45;6.05;;;27.00;62.70;;;;;;5064834;28;44333;-73
2022/08/19 06:11:21;;;;;;;6.72;6.22;;;27.00;62.80;;;;;;5065320;28;45107;-73
2022/08/19 06:13:52;;;;;;;6.32;5.93;;;26.80;63.30;;;;;;5065618;28;43409;-74
2022/08/19 06:16:27;;;;;;;6.78;6.30;;;26.60;64.00;;;;;;5067019;28;43965;-74
2022/08/19 06:18:56;;;;;;;6.32;5.82;;;26.40;64.90;;;;;;5066492;28;45220;-74
2022/08/19 06:21:26;;;;;;;6.40;6.00;;;26.20;65.10;;;;;;5064498;28;43998;-74
2022/08/19 06:23:55;;;;;;;6.47;6.15;;;26.10;65.70;;;;;;5066359;28;43981;-74
2022/08/19 06:26:26;;;;;;;5.97;5.68;;;25.90;66.00;;;;;;5066493;28;43919;-74
2022/08/19 06:28:55;;;;;;;6.75;6.30;;;25.80;66.70;;;;;;5066355;28;44114;-74
2022/08/19 06:31:26;;;;;;;6.22;5.82;;;25.70;66.90;;;;;;5064588;28;45173;-73
2022/08/19 06:33:54;;;;;;;6.50;6.07;;;25.70;67.20;;;;;;5065565;28;43986;-73
2022/08/19 06:36:26;;;;;;;6.32;5.95;;;25.60;67.20;;;;;;5065179;28;44010;-74
2022/08/19 06:38:54;;;;;;;6.40;6.00;;;25.50;67.60;;;;;;5065933;28;44802;-73
2022/08/19 06:41:22;;;;;;;6.78;6.38;;;25.40;68.00;;;;;;5065957;28;44047;-74
2022/08/19 06:43:50;;;;;;;6.80;6.40;;;25.50;67.70;;;;;;5064445;28;43992;-73
2022/08/19 06:46:24;;;;;;;5.55;5.35;;;25.60;67.20;;;;;;5066645;28;43365;-73
2022/08/19 06:48:54;;;;;;;6.00;5.70;;;25.70;66.80;;;;;;5065590;28;43909;-72
2022/08/19 06:51:22;;;;;;;6.00;5.60;;;25.90;66.60;;;;;;5065968;28;43407;-75
2022/08/19 06:53:52;;;;;;;6.28;5.90;;;25.80;66.60;;;;;;5066079;28;43904;-73
2022/08/19 06:56:24;;;;;;;5.93;5.63;;;25.70;66.90;;;;;;5066178;28;43960;-73
2022/08/19 06:58:52;;;;;;;6.15;5.75;;;25.60;67.20;;;;;;5065515;28;43767;-74
2022/08/19 07:01:25;;;;;;;6.00;5.70;;;25.60;67.40;;;;;;5065999;28;43896;-73
2022/08/19 07:03:53;;;;;;;5.88;5.57;;;25.50;67.60;;;;;;5065585;28;43925;-73
2022/08/19 07:06:21;;;;;;;6.43;6.03;;;25.50;67.50;;;;;;5065991;28;43955;-73
2022/08/19 07:09:12;;;;;;;6.10;5.80;;;25.40;68.20;;;;;;5065729;28;44007;-74
2022/08/19 07:11:46;;;;;;;6.07;5.77;;;25.30;68.30;;;;;;5065924;28;43908;-73
2022/08/19 07:14:17;;;;;;;6.00;5.70;;;25.30;68.30;;;;;;5066019;28;44044;-73
2022/08/19 07:16:48;;;;;;;6.32;5.95;;;25.30;68.10;;;;;;5066204;28;43960;-74
2022/08/19 07:19:16;;;;;;;6.07;5.70;;;25.20;68.90;;;;;;5065994;28;44810;-73
2022/08/19 07:21:49;;;;;;;6.45;6.05;;;25.20;68.80;;;;;;5065767;28;43775;-73
2022/08/19 07:24:20;;;;;;;6.20;5.90;;;25.20;68.80;;;;;;5066285;28;43375;-73
2022/08/19 07:26:48;;;;;;;6.30;6.00;;;25.10;68.30;;;;;;5069361;28;43921;-74
2022/08/19 07:29:22;;;;;;;6.70;6.40;;;25.10;69.00;;;;;;5069015;28;43960;-75
2022/08/19 07:31:56;;;;;;;5.93;5.72;;;25.10;69.10;;;;;;5068657;28;43454;-74
2022/08/19 07:34:26;;;;;;;5.63;5.38;;;25.20;68.70;;;;;;5068827;28;43984;-73
2022/08/19 07:36:54;;;;;;;5.68;5.47;;;25.30;68.20;;;;;;5069092;28;43861;-74
2022/08/19 07:39:23;;;;;;;5.80;5.50;;;25.50;67.70;;;;;;5068828;28;44969;-73
2022/08/19 07:41:54;;;;;;;5.20;5.00;;;25.60;67.40;;;;;;5066635;28;45738;-73
2022/08/19 07:44:22;;;;;;;5.85;5.55;;;25.60;67.50;;;;;;5068668;28;43795;-74
2022/08/19 07:46:53;;;;;;;5.50;5.30;;;25.50;67.50;;;;;;5069007;28;44044;-73
2022/08/19 07:49:23;;;;;;;5.43;5.20;;;25.50;68.00;;;;;;5068723;28;44016;-74
2022/08/19 07:51:53;;;;;;;5.87;5.67;;;25.50;68.10;;;;;;5068550;28;43760;-73
2022/08/19 07:54:21;;;;;;;6.27;5.90;;;25.40;68.20;;;;;;5068628;28;43344;-74
2022/08/19 07:56:50;;;;;;;5.40;5.20;;;25.30;68.00;;;;;;5069311;28;44198;-74
2022/08/19 07:59:20;;;;;;;5.53;5.23;;;25.20;68.60;;;;;;5068216;28;43921;-74
2022/08/19 08:01:49;;;;;;;5.73;5.43;;;25.20;68.80;;;;;;5067046;28;44447;-74
2022/08/19 08:09:51;;;;;;;6.07;5.77;;;25.10;69.10;;;;;;5068075;28;44017;-73
2022/08/19 08:12:21;;;;;;;5.55;5.35;;;25.10;68.90;;;;;;5068591;28;43857;-75
2022/08/19 08:15:07;;;;;;;5.53;5.33;;;25.20;68.60;;;;;;5068237;28;43956;-74
2022/08/19 08:17:39;;;;;;;5.87;5.60;;;25.30;68.00;;;;;;5067135;28;43851;-73
2022/08/19 08:20:19;;;;;;;5.40;5.20;;;25.50;67.60;;;;;;5068251;28;43976;-73
2022/08/19 08:25:35;;;;;;;5.53;5.33;;;25.40;67.70;;;;;;5068489;28;43956;-74
2022/08/19 08:28:03;;;;;;;5.15;4.95;;;25.30;68.10;;;;;;5066962;28;43440;-73
2022/08/19 08:30:34;;;;;;;5.40;5.17;;;25.30;68.20;;;;;;5067964;28;44008;-73
2022/08/19 08:33:02;;;;;;;5.23;5.03;;;25.30;68.30;;;;;;5068117;28;43410;-74
2022/08/19 08:35:30;;;;;;;5.00;4.82;;;25.20;68.00;;;;;;5066123;28;43964;-73
2022/08/19 08:38:01;;;;;;;5.10;4.90;;;25.10;68.80;;;;;;5067791;28;44021;-74
2022/08/19 08:40:30;;;;;;;4.88;4.78;;;25.10;69.00;;;;;;5068023;28;43970;-73
2022/08/19 08:43:01;;;;;;;5.00;4.90;;;25.10;68.90;;;;;;5067674;28;43942;-73
2022/08/19 08:45:34;;;;;;;5.00;4.90;;;25.10;68.50;;;;;;5066281;28;43890;-73
2022/08/19 08:48:14;;;;;;;5.17;4.97;;;25.00;69.20;;;;;;5068163;28;43928;-74
2022/08/19 08:50:52;;;;;;;5.20;5.00;;;25.00;69.30;;;;;;5067480;28;44350;-74
2022/08/19 08:53:22;;;;;;;4.80;4.70;;;25.00;69.70;;;;;;5067281;28;44003;-73
2022/08/19 08:56:00;;;;;;;5.00;4.80;;;25.00;68.70;;;;;;5067905;28;43906;-73
2022/08/19 08:58:32;;;;;;;4.70;4.60;;;25.00;69.40;;;;;;5068213;28;44178;-73
2022/08/19 09:01:00;;;;;;;4.93;4.77;;;25.00;69.30;;;;;;5067478;28;43986;-73
2022/08/19 09:03:28;;;;;;;4.80;4.70;;;25.10;68.80;;;;;;5067176;28;43974;-73
2022/08/19 09:06:03;;;;;;;4.87;4.77;;;25.20;68.40;;;;;;5067541;28;43934;-73
2022/08/19 09:08:45;;;;;;;5.20;5.00;;;25.30;67.80;;;;;;5067466;28;43846;-73
2022/08/19 09:11:17;;;;;;;4.40;4.30;;;25.30;67.90;;;;;;5065792;28;45623;-73
2022/08/19 09:14:10;;;;;;;4.17;4.07;;;25.30;67.80;;;;;;5067678;28;44044;-73
2022/08/19 09:16:59;;;;;;;6.50;5.27;;;25.30;68.20;;;;;;5067208;28;43474;-74
2022/08/19 09:19:27;;;;;;;4.93;4.72;;;25.20;67.00;;;;;;5067660;28;43419;-73
2022/08/19 09:21:56;;;;;;;5.37;4.97;;;25.20;67.00;;;;;;5067195;28;43878;-73
2022/08/19 09:24:25;;;;;;;5.53;5.33;;;25.10;67.20;;;;;;5067586;28;44138;-74
2022/08/19 09:26:58;;;;;;;5.73;5.47;;;25.10;66.00;;;;;;5067302;28;43438;-74
2022/08/19 09:29:26;;;;;;;5.47;5.17;;;25.10;66.00;;;;;;5066384;28;43972;-73
2022/08/19 09:31:54;;;;;;;5.50;5.20;;;25.00;66.20;;;;;;5066484;28;43901;-74
2022/08/19 09:34:22;;;;;;;5.40;5.10;;;25.00;66.40;;;;;;5066854;28;43968;-73
2022/08/19 09:36:52;;;;;;;5.40;5.20;;;25.00;66.20;;;;;;5066498;28;43388;-73
2022/08/19 09:39:21;;;;;;;5.28;5.07;;;25.00;65.90;;;;;;5067359;28;43280;-74
2022/08/19 09:41:51;;;;;;;5.77;5.57;;;25.10;65.40;;;;;;5066653;28;45007;-74
2022/08/19 09:44:20;;;;;;;5.33;5.13;;;25.20;65.00;;;;;;5066880;28;43987;-74
2022/08/19 09:46:48;;;;;;;5.35;5.15;;;25.30;64.50;;;;;;5066815;28;43455;-73
2022/08/19 09:49:17;;;;;;;5.07;4.97;;;25.40;64.50;;;;;;5065017;28;43409;-75
2022/08/19 09:51:47;;;;;;;5.50;5.10;;;25.30;64.50;;;;;;5064957;28;45713;-73
2022/08/19 09:54:18;;;;;;;5.53;5.13;;;25.30;65.00;;;;;;5066933;28;44034;-74
2022/08/19 09:56:53;;;;;;;5.68;5.38;;;25.30;64.90;;;;;;5066817;28;43358;-74
2022/08/19 09:59:22;;;;;;;4.90;4.70;;;25.20;64.90;;;;;;5067293;28;43881;-75
2022/08/19 10:01:50;;;;;;;5.40;5.20;;;25.20;65.20;;;;;;5065049;28;45405;-74
2022/08/19 10:04:19;;;;;;;5.10;4.90;;;25.10;65.40;;;;;;5065551;28;44513;-74
2022/08/19 10:06:49;;;;;;;5.30;5.10;;;25.10;65.30;;;;;;5066785;28;43934;-74
2022/08/19 10:09:20;;;;;;;5.00;4.90;;;25.00;65.20;;;;;;5067085;28;43797;-74
2022/08/19 10:12:02;;;;;;;4.90;4.80;;;25.00;65.30;;;;;;5066592;28;43607;-74
2022/08/19 10:14:30;;;;;;;4.90;4.80;;;25.00;65.60;;;;;;5066238;28;43725;-73
2022/08/19 10:17:00;;;;;;;4.73;4.63;;;25.00;65.40;;;;;;5066871;28;43912;-74
2022/08/19 10:19:35;;;;;;;4.63;4.53;;;25.00;65.80;;;;;;5065057;28;44116;-73
2022/08/19 10:22:05;;;;;;;4.80;4.60;;;25.10;64.50;;;;;;5064451;28;43998;-73
2022/08/19 10:24:36;;;;;;;4.70;4.60;;;25.20;63.90;;;;;;5065854;28;43425;-74
2022/08/19 10:27:06;;;;;;;5.00;4.80;;;25.30;63.90;;;;;;5066523;28;43410;-75
2022/08/19 10:29:36;;;;;;;4.13;4.03;;;25.30;63.90;;;;;;5066848;28;43979;-75
2022/08/19 10:32:15;;;;;;;4.47;4.38;;;25.20;64.30;;;;;;5066726;28;44249;-74
2022/08/19 10:34:43;;;;;;;4.80;4.60;;;25.20;64.30;;;;;;5065691;28;44028;-74
2022/08/19 10:37:16;;;;;;;4.90;4.70;;;25.10;64.30;;;;;;5066796;28;43836;-74
2022/08/19 10:39:50;;;;;;;4.90;4.80;;;25.10;64.40;;;;;;5066697;28;43820;-74
2022/08/19 10:42:20;;;;;;;4.77;4.67;;;25.00;64.70;;;;;;5064808;28;45856;-74
2022/08/19 10:44:49;;;;;;;4.65;4.40;;;25.00;64.60;;;;;;5066122;28;43387;-74
2022/08/19 10:47:18;;;;;;;4.63;4.50;;;25.00;64.60;;;;;;5066364;28;43446;-73
2022/08/19 10:52:40;;;;;;;4.72;4.55;;;25.00;64.70;;;;;;5065937;28;44262;-74
2022/08/19 10:58:05;;;;;;;4.77;4.40;;;25.00;63.80;;;;;;5065915;28;44044;-74
2022/08/19 11:00:33;;;;;;;4.20;4.10;;;25.10;63.20;;;;;;5067246;28;43947;-73
2022/08/19 11:03:01;;;;;;;4.57;4.47;;;25.20;63.30;;;;;;5069510;28;44066;-74
2022/08/19 11:05:30;;;;;;;3.93;3.83;;;25.30;63.20;;;;;;5067875;28;46336;-74
2022/08/19 11:08:07;;;;;;;4.37;4.27;;;25.30;63.40;;;;;;5069378;28;43954;-75
2022/08/19 11:10:49;;;;;;;4.00;3.90;;;25.20;63.80;;;;;;5069929;28;43921;-74
2022/08/19 11:13:19;;;;;;;4.37;4.27;;;25.10;63.90;;;;;;5069441;28;43929;-73
2022/08/19 11:15:47;;;;;;;3.97;3.87;;;25.10;64.10;;;;;;5069311;28;44009;-74
2022/08/19 11:18:17;;;;;;;4.23;4.03;;;25.00;63.80;;;;;;5069357;28;43762;-74
2022/08/19 11:20:45;;;;;;;3.87;3.77;;;25.00;63.90;;;;;;5067933;28;44016;-74
2022/08/19 11:23:13;;;;;;;4.43;4.33;;;25.00;64.30;;;;;;5069395;28;43890;-74
2022/08/19 11:25:41;;;;;;;4.00;3.90;;;25.00;64.40;;;;;;5067124;28;44586;-75
2022/08/19 11:28:09;;;;;;;4.53;4.43;;;25.00;64.90;;;;;;5069164;28;44019;-74
2022/08/19 11:30:39;;;;;;;4.17;4.07;;;25.00;63.90;;;;;;5069432;28;43923;-74
2022/08/19 11:33:07;;;;;;;4.40;4.13;;;24.90;64.70;;;;;;5068972;28;45129;-74
2022/08/19 11:35:35;;;;;;;3.97;3.87;;;24.90;64.70;;;;;;5068449;28;44443;-74
2022/08/19 11:38:03;;;;;;;4.50;4.30;;;25.00;64.40;;;;;;5068662;28;43787;-73
2022/08/19 11:40:36;;;;;;;4.10;4.00;;;25.10;63.70;;;;;;5068528;28;43379;-75
2022/08/19 11:43:04;;;;;;;4.07;3.90;;;25.20;63.10;;;;;;5067449;28;45832;-73
2022/08/19 11:45:32;;;;;;;3.78;3.67;;;25.30;63.70;;;;;;5068438;28;43959;-74
2022/08/19 11:48:02;;;;;;;3.90;3.70;;;25.20;62.70;;;;;;5068838;28;43932;-74
2022/08/19 11:50:30;;;;;;;4.47;4.20;;;25.20;62.90;;;;;;5068982;28;43939;-74
2022/08/19 11:53:00;;;;;;;4.10;3.90;;;25.10;62.90;;;;;;5068538;28;43985;-74
2022/08/19 11:55:28;;;;;;;4.20;4.10;;;25.10;63.10;;;;;;5068484;28;43963;-73
2022/08/19 11:57:56;;;;;;;4.00;3.90;;;25.10;63.00;;;;;;5068654;28;43333;-75
2022/08/19 12:00:24;;;;;;;4.00;3.90;;;25.00;63.40;;;;;;5067463;28;43872;-74
2022/08/19 12:02:52;;;;;;;3.93;3.83;;;25.00;63.50;;;;;;5068312;28;44018;-72
2022/08/19 12:05:24;;;;;;;3.80;3.70;;;25.00;63.50;;;;;;5068786;28;43410;-73
2022/08/19 12:07:55;;;;;;;3.90;3.80;;;25.00;63.30;;;;;;5068315;28;43775;-73
2022/08/19 12:10:24;;;;;;;3.83;3.73;;;24.90;63.40;;;;;;5068900;28;44023;-72
2022/08/19 12:12:53;;;;;;;3.77;3.67;;;24.90;63.80;;;;;;5067045;28;43904;-72
2022/08/19 12:15:28;;;;;;;3.90;3.80;;;24.90;63.20;;;;;;5068214;28;43938;-73
2022/08/19 12:18:04;;;;;;;4.00;3.90;;;25.00;62.70;;;;;;5068390;28;44068;-73
2022/08/19 12:20:35;;;;;;;4.10;3.90;;;25.10;62.70;;;;;;5068099;28;43721;-73
2022/08/19 12:23:03;;;;;;;3.70;3.60;;;25.10;62.60;;;;;;5068001;28;44083;-72
2022/08/19 12:25:34;;;;;;;4.17;4.07;;;25.10;62.50;;;;;;5067850;28;43912;-73
2022/08/19 12:28:04;;;;;;;3.87;3.77;;;25.10;63.00;;;;;;5067893;28;43936;-73
2022/08/19 12:30:32;;;;;;;3.97;3.83;;;25.10;63.00;;;;;;5068376;28;43972;-72
2022/08/19 12:33:00;;;;;;;4.03;3.90;;;25.00;62.90;;;;;;5066513;28;44088;-73
2022/08/19 12:35:32;;;;;;;3.97;3.87;;;25.00;62.70;;;;;;5067706;28;43940;-72
2022/08/19 12:38:02;;;;;;;3.70;3.60;;;25.00;63.20;;;;;;5068000;28;43959;-72
2022/08/19 12:40:33;;;;;;;3.80;3.70;;;24.90;63.80;;;;;;5067811;28;43975;-73
2022/08/19 12:43:01;;;;;;;3.90;3.80;;;24.90;63.70;;;;;;5067921;28;44061;-72
2022/08/19 12:45:29;;;;;;;3.73;3.63;;;24.90;63.10;;;;;;5067782;28;43931;-73
2022/08/19 12:47:57;;;;;;;3.97;3.87;;;24.90;63.20;;;;;;5068463;28;44224;-74
2022/08/19 12:50:49;;;;;;;3.77;3.67;;;24.80;64.20;;;;;;5067933;28;43493;-72
2022/08/19 12:53:17;;;;;;;3.90;3.80;;;24.90;63.80;;;;;;5068004;28;43865;-72
2022/08/19 12:55:45;;;;;;;3.83;3.73;;;25.00;63.40;;;;;;5067359;28;43916;-71
2022/08/19 12:58:13;;;;;;;4.27;4.07;;;25.10;62.80;;;;;;5067757;28;44050;-74
2022/08/19 13:00:41;;;;;;;4.00;3.90;;;25.20;62.50;;;;;;5068002;28;44007;-72
2022/08/19 13:03:09;;;;;;;3.97;3.87;;;25.20;62.70;;;;;;5067338;28;43848;-72
2022/08/19 13:05:38;;;;;;;4.30;4.20;;;25.20;63.30;;;;;;5067096;28;43931;-73
2022/08/19 13:08:08;;;;;;;4.10;4.00;;;25.10;63.00;;;;;;5068140;28;44047;-73
2022/08/19 13:10:36;;;;;;;3.97;3.87;;;25.10;63.20;;;;;;5067544;28;43985;-74
2022/08/19 13:13:06;;;;;;;4.30;4.10;;;25.10;63.30;;;;;;5067242;28;45129;-74
2022/08/19 13:15:34;;;;;;;3.70;3.60;;;25.00;62.90;;;;;;5066980;28;43990;-73
2022/08/19 13:18:05;;;;;;;4.07;3.97;;;25.00;63.70;;;;;;5067716;28;43995;-74
2022/08/19 13:20:33;;;;;;;4.23;3.90;;;25.00;64.10;;;;;;5067264;28;43491;-73
2022/08/19 13:23:03;;;;;;;3.87;3.80;;;24.90;63.90;;;;;;5067094;28;44972;-74
2022/08/19 13:25:35;;;;;;;4.13;4.03;;;24.90;63.20;;;;;;5066942;28;43975;-73